Ballarat, Victoria

11:12 PM AEST on August 30, 2016 (GMT +1000)
Lucas | | Change Station

Elev 1476 ft 37.55 °S, 143.78 °E | Updated 14 seconds ago

Overcast
Overcast
52.5 °F
Feels Like 52.5 °F
N
1.3
Wind Variable Wind from NNE
Gusts 2.5 mph

Today
High -- | Low -- °F
--% Chance of Precip.
Yesterday
High -- | Low -- °F
Precip. -- in
Pressure 29.89 in
Visibility 6.2 miles
Clouds Scattered Clouds 6700 ft
Overcast 8900 ft
Dew Point 50 °F
Humidity 91%
Rainfall in
Snow Depth Not available.
6:49 AM 6:02 PM
Waning Crescent, 4% visible
METAR YMAV 301300Z AUTO 01013KT 9999 // SCT067 OVC089 15/11 Q1012
Pressure 29.89 in
Visibility 6.2 miles
Clouds Scattered Clouds 6700 ft
Overcast 8900 ft
Dew Point 50 °F
Humidity 91%
Rainfall in
Snow Depth Not available.
6:49 AM 6:02 PM
Waning Crescent, 4% visible
METAR YMAV 301300Z AUTO 01013KT 9999 // SCT067 OVC089 15/11 Q1012

10-Day Weather Forecast

Almanac

Astronomy

Aug. 30, 2016 Rise Set
Actual Time
Civil Twilight
Nautical Twilight
Astronomical Twilight
Moon
Length of Visible Light
Length of Day
Tomorrow will be .
, % of the Moon is Illuminated

Today's Extremes

Country Highs Country Lows

Community

WunderPhotos

Upload Photos

1,935,831 photos uploaded!

WunderBlog® & News

Nearby

Air Quality

  Air Quality AQ Index Pollutant
Not available.

Snow Depth

Station Depth Elevation

Earthquake Activity

City Distance Mag. Time & Date
Minimum magnitude displayed is 2.5.

Coastal Water Temperatures

Place Temperature

Stations

Nearby Weather Stations

Station Location Temp. Windchill Dew Point Humidity Wind Precip. Elev Updated Type